createdAt,value
2019-01-28T00:00:47.687Z,47.30
2019-01-28T00:03:16.067Z,47.60
2019-01-28T00:05:43.902Z,48.00
2019-01-28T00:08:11.999Z,47.20
2019-01-28T00:10:40.173Z,47.40
2019-01-28T00:13:08.019Z,47.40
2019-01-28T00:15:35.855Z,47.70
2019-01-28T00:18:03.701Z,47.60
2019-01-28T00:20:31.542Z,47.60
2019-01-28T00:22:59.386Z,47.40
2019-01-28T00:25:27.622Z,47.70
2019-01-28T00:27:55.462Z,47.60
2019-01-28T00:30:23.312Z,47.60
2019-01-28T00:32:51.158Z,47.80
2019-01-28T00:35:19.016Z,47.90
2019-01-28T00:37:46.967Z,47.90
2019-01-28T00:40:14.822Z,48.10
2019-01-28T00:42:42.672Z,48.40
2019-01-28T00:45:10.759Z,48.10
2019-01-28T00:47:38.603Z,48.40
2019-01-28T00:50:06.906Z,48.60
2019-01-28T00:52:34.747Z,48.60
2019-01-28T00:55:02.586Z,48.70
2019-01-28T00:57:30.440Z,49.00
2019-01-28T00:59:58.278Z,48.70
2019-01-28T01:02:26.119Z,48.70
2019-01-28T01:04:53.965Z,48.60
2019-01-28T01:07:22.079Z,49.30
2019-01-28T01:09:50.213Z,48.60
2019-01-28T01:12:18.131Z,48.70
2019-01-28T01:14:46.227Z,48.40
2019-01-28T01:17:14.404Z,48.70
2019-01-28T01:19:42.239Z,48.70
2019-01-28T01:22:10.108Z,48.50
2019-01-28T01:24:37.956Z,47.90
2019-01-28T01:27:05.824Z,48.80
2019-01-28T01:29:33.660Z,48.60
2019-01-28T01:32:01.526Z,49.10
2019-01-28T01:34:29.372Z,49.30
2019-01-28T01:36:57.206Z,49.40
2019-01-28T01:39:25.060Z,49.30
2019-01-28T01:41:52.983Z,49.60
2019-01-28T01:44:20.818Z,50.00
2019-01-28T01:46:48.753Z,49.10
2019-01-28T01:49:16.867Z,49.40
2019-01-28T01:51:44.706Z,49.50
2019-01-28T01:54:12.907Z,49.50
2019-01-28T01:56:40.757Z,49.70
2019-01-28T01:59:08.592Z,49.20
2019-01-28T02:01:36.435Z,49.30
2019-01-28T02:04:04.287Z,49.70
2019-01-28T02:06:32.143Z,50.10
2019-01-28T02:08:59.995Z,49.40
2019-01-28T02:11:28.176Z,49.90
2019-01-28T02:13:56.032Z,49.20
2019-01-28T02:16:23.876Z,49.10
2019-01-28T02:18:51.979Z,49.10
2019-01-28T02:21:19.899Z,49.70
2019-01-28T02:23:48.138Z,49.30
2019-01-28T02:26:15.991Z,49.50
2019-01-28T02:28:43.832Z,49.00
2019-01-28T02:31:11.671Z,49.30
2019-01-28T02:33:39.518Z,49.40
2019-01-28T02:36:07.370Z,49.10
2019-01-28T02:38:35.217Z,49.00
2019-01-28T02:41:03.064Z,49.10
2019-01-28T02:43:30.983Z,49.20
2019-01-28T02:45:58.966Z,49.00
2019-01-28T02:48:26.913Z,49.10
2019-01-28T02:50:54.758Z,49.00
2019-01-28T02:53:22.626Z,49.00
2019-01-28T02:55:50.467Z,49.00
2019-01-28T02:58:18.334Z,49.00
2019-01-28T03:00:46.547Z,49.10
2019-01-28T03:03:14.891Z,49.00
2019-01-28T03:05:42.728Z,48.90
2019-01-28T03:08:10.591Z,49.00
2019-01-28T03:10:38.432Z,48.90
2019-01-28T03:13:06.305Z,48.80
2019-01-28T03:15:34.164Z,49.00
2019-01-28T03:18:02.088Z,49.60
2019-01-28T03:20:29.928Z,48.80
2019-01-28T03:22:57.791Z,49.20
2019-01-28T03:25:25.627Z,49.10
2019-01-28T03:27:53.471Z,48.90
2019-01-28T03:30:21.355Z,48.90
2019-01-28T03:32:49.394Z,48.90
2019-01-28T03:35:17.409Z,49.20
2019-01-28T03:37:45.328Z,49.20
2019-01-28T03:40:14.278Z,49.20
2019-01-28T03:42:42.125Z,49.00
2019-01-28T03:45:11.696Z,49.00
2019-01-28T03:47:39.545Z,49.70
2019-01-28T03:50:07.799Z,49.20
2019-01-28T03:52:36.036Z,48.90
2019-01-28T03:55:04.039Z,49.00
2019-01-28T03:57:31.887Z,49.00
2019-01-28T04:00:00.024Z,49.00
2019-01-28T04:02:27.872Z,49.00
2019-01-28T04:04:55.714Z,49.00
2019-01-28T04:07:23.560Z,49.00
2019-01-28T04:09:51.394Z,49.00
2019-01-28T04:12:19.310Z,49.00
2019-01-28T04:14:47.159Z,48.90
2019-01-28T04:17:15.002Z,49.10
2019-01-28T04:19:42.854Z,49.10
2019-01-28T04:22:10.772Z,49.00
2019-01-28T04:24:38.691Z,49.20
2019-01-28T04:27:06.556Z,49.00
2019-01-28T04:29:34.428Z,48.90
2019-01-28T04:32:02.705Z,49.00
2019-01-28T04:34:30.584Z,49.00
2019-01-28T04:36:58.419Z,49.00
2019-01-28T04:39:26.290Z,48.90
2019-01-28T04:41:54.131Z,48.90
2019-01-28T04:44:22.014Z,48.90
2019-01-28T04:46:49.843Z,48.90
2019-01-28T04:49:17.711Z,48.90
2019-01-28T04:51:45.545Z,48.90
2019-01-28T04:54:13.729Z,49.50
2019-01-28T04:56:41.570Z,49.00
2019-01-28T04:59:09.435Z,48.80
2019-01-28T05:01:37.361Z,49.00
2019-01-28T05:04:05.199Z,48.90
2019-01-28T05:06:33.042Z,49.10
2019-01-28T05:09:00.889Z,49.20
2019-01-28T05:11:28.732Z,49.40
2019-01-28T05:13:56.570Z,48.90
2019-01-28T05:16:24.410Z,49.00
2019-01-28T05:18:52.263Z,49.00
2019-01-28T05:21:20.121Z,48.80
2019-01-28T05:23:47.953Z,49.40
2019-01-28T05:26:15.799Z,49.00
2019-01-28T05:28:43.920Z,49.10
2019-01-28T05:31:11.768Z,48.90
2019-01-28T05:33:39.608Z,49.50
2019-01-28T05:36:07.458Z,49.80
2019-01-28T05:38:35.295Z,49.40
2019-01-28T05:41:03.470Z,49.20
2019-01-28T05:43:31.310Z,49.20
2019-01-28T05:45:59.511Z,49.20
2019-01-28T05:48:27.668Z,50.50
2019-01-28T05:50:55.892Z,50.20
2019-01-28T05:53:23.730Z,51.10
2019-01-28T05:55:52.039Z,50.10
2019-01-28T05:58:20.154Z,50.50
2019-01-28T06:00:48.099Z,50.80
2019-01-28T06:03:16.187Z,50.80
2019-01-28T06:05:44.047Z,50.80
2019-01-28T06:08:12.235Z,50.50
2019-01-28T06:10:40.198Z,50.90
2019-01-28T06:13:08.110Z,50.40
2019-01-28T06:15:35.983Z,50.50
2019-01-28T06:18:04.135Z,50.10
2019-01-28T06:20:32.002Z,50.30
2019-01-28T06:22:59.848Z,50.00
2019-01-28T06:25:27.720Z,50.10
2019-01-28T06:27:55.563Z,50.00
2019-01-28T06:30:24.745Z,49.70
2019-01-28T06:32:52.585Z,50.00
2019-01-28T06:35:20.451Z,49.80
2019-01-28T06:37:48.322Z,49.50
2019-01-28T06:40:17.453Z,49.30
2019-01-28T06:42:45.291Z,49.30
2019-01-28T06:45:13.708Z,48.70
2019-01-28T06:47:46.662Z,48.60
2019-01-28T06:50:11.444Z,47.90
2019-01-28T06:52:39.293Z,47.50
2019-01-28T06:55:07.587Z,47.30
2019-01-28T06:57:35.426Z,47.50
2019-01-28T07:00:03.535Z,47.50
2019-01-28T07:02:31.639Z,47.60
2019-01-28T07:04:59.547Z,47.60
2019-01-28T07:07:27.674Z,47.40
2019-01-28T07:09:55.525Z,46.90
2019-01-28T07:12:23.372Z,46.90
2019-01-28T07:14:51.218Z,47.20
2019-01-28T07:17:19.100Z,47.20
2019-01-28T07:19:47.295Z,47.30
2019-01-28T07:22:15.230Z,48.40
2019-01-28T07:24:44.340Z,47.70
2019-01-28T07:27:12.654Z,47.70
2019-01-28T07:29:40.662Z,47.60
2019-01-28T07:32:08.536Z,47.80
2019-01-28T07:34:36.378Z,47.20
2019-01-28T07:37:04.264Z,47.20
2019-01-28T07:39:32.454Z,47.40
2019-01-28T07:42:00.572Z,47.20
2019-01-28T07:44:28.509Z,47.20
2019-01-28T07:46:56.351Z,47.40
2019-01-28T07:49:24.204Z,47.20
2019-01-28T07:51:52.048Z,47.20
2019-01-28T07:54:19.890Z,46.90
2019-01-28T07:56:47.739Z,47.90
2019-01-28T07:59:15.586Z,46.90
2019-01-28T08:01:43.440Z,46.90
2019-01-28T08:04:11.289Z,46.70
2019-01-28T08:06:39.298Z,46.80
2019-01-28T08:09:07.995Z,46.90
2019-01-28T08:11:35.863Z,46.60
2019-01-28T08:14:03.731Z,46.90
2019-01-28T08:16:31.598Z,47.30
2019-01-28T08:18:59.792Z,48.30
2019-01-28T08:21:27.663Z,48.10
2019-01-28T08:23:55.886Z,47.80
2019-01-28T08:26:24.103Z,47.80
2019-01-28T08:28:51.953Z,48.70
2019-01-28T08:31:20.169Z,47.90
2019-01-28T08:33:48.019Z,48.60
2019-01-28T08:36:15.898Z,48.60
2019-01-28T08:38:44.072Z,48.30
2019-01-28T08:41:11.958Z,48.40
2019-01-28T08:43:39.811Z,48.30
2019-01-28T08:46:07.675Z,48.40
2019-01-28T08:48:35.522Z,47.90
2019-01-28T08:51:03.386Z,47.80
2019-01-28T08:53:31.243Z,47.60
2019-01-28T08:55:59.168Z,48.10
2019-01-28T08:58:27.047Z,47.50
2019-01-28T09:00:54.910Z,47.60
2019-01-28T09:03:22.750Z,47.40
2019-01-28T09:05:50.623Z,47.40
2019-01-28T09:08:18.758Z,47.30
2019-01-28T09:10:46.624Z,47.20
2019-01-28T09:13:14.468Z,47.30
2019-01-28T09:15:42.303Z,47.50
2019-01-28T09:18:10.884Z,47.20
2019-01-28T09:20:38.800Z,47.30
2019-01-28T09:23:06.643Z,47.20
2019-01-28T09:25:34.483Z,47.20
2019-01-28T09:28:02.332Z,47.20
2019-01-28T09:30:31.038Z,47.40
2019-01-28T09:32:58.950Z,47.10
2019-01-28T09:35:26.793Z,47.00
2019-01-28T09:37:54.658Z,47.00
2019-01-28T09:40:23.116Z,47.60
2019-01-28T09:42:51.054Z,46.80
2019-01-28T09:45:20.197Z,46.70
2019-01-28T09:47:48.066Z,46.50
2019-01-28T09:50:16.333Z,46.50
2019-01-28T09:52:44.623Z,46.50
2019-01-28T09:55:12.467Z,46.70
2019-01-28T09:57:40.682Z,46.60
2019-01-28T10:00:12.863Z,46.40
2019-01-28T10:02:40.739Z,46.60
2019-01-28T10:05:08.588Z,46.50
2019-01-28T10:07:36.507Z,46.40
2019-01-28T10:10:05.611Z,46.60
2019-01-28T10:12:34.622Z,46.60
2019-01-28T10:15:02.967Z,46.20
2019-01-28T10:17:30.847Z,46.00
2019-01-28T10:19:58.960Z,46.20
2019-01-28T10:22:26.832Z,46.20
2019-01-28T10:24:54.999Z,46.20
2019-01-28T10:27:22.866Z,46.30
2019-01-28T10:29:50.712Z,46.10
2019-01-28T10:32:18.603Z,46.10
2019-01-28T10:34:46.451Z,46.30
2019-01-28T10:37:14.746Z,46.10
2019-01-28T10:39:43.011Z,46.00
2019-01-28T10:42:10.883Z,46.20
2019-01-28T10:44:39.071Z,45.90
2019-01-28T10:47:06.949Z,45.90
2019-01-28T10:49:34.791Z,45.90
2019-01-28T10:52:02.630Z,45.90
2019-01-28T10:54:30.482Z,45.80
2019-01-28T10:56:58.324Z,46.10
2019-01-28T10:59:26.166Z,45.90
2019-01-28T11:01:54.011Z,46.00
2019-01-28T11:04:21.886Z,45.90
2019-01-28T11:06:49.740Z,46.00
2019-01-28T11:09:17.636Z,45.90
2019-01-28T11:11:45.599Z,45.90
2019-01-28T11:14:13.584Z,46.70
2019-01-28T11:16:41.552Z,47.10
2019-01-28T11:19:09.483Z,46.90
2019-01-28T11:21:37.338Z,46.60
2019-01-28T11:24:05.253Z,46.50
2019-01-28T11:26:33.343Z,46.80
2019-01-28T11:29:01.258Z,46.80
2019-01-28T11:31:29.531Z,46.90
2019-01-28T11:33:57.731Z,46.80
2019-01-28T11:36:26.008Z,46.70
2019-01-28T11:38:54.086Z,46.70
2019-01-28T11:41:22.348Z,46.70
2019-01-28T11:43:50.280Z,46.80
2019-01-28T11:46:18.165Z,46.80
2019-01-28T11:48:46.077Z,46.80
2019-01-28T11:51:13.979Z,46.70
2019-01-28T11:53:41.832Z,46.70
2019-01-28T11:56:09.671Z,46.70
2019-01-28T11:58:37.880Z,46.70
2019-01-28T12:01:13.862Z,46.70
2019-01-28T12:03:41.743Z,46.80
2019-01-28T12:06:09.899Z,46.70
2019-01-28T12:08:37.787Z,46.60
2019-01-28T12:11:05.639Z,46.70
2019-01-28T12:13:33.485Z,46.80
2019-01-28T12:16:01.668Z,46.80
2019-01-28T12:18:29.509Z,46.80
2019-01-28T12:20:57.347Z,46.80
2019-01-28T12:23:25.202Z,46.70
2019-01-28T12:25:53.044Z,46.60
2019-01-28T12:28:20.919Z,46.60
2019-01-28T12:30:48.758Z,46.60
2019-01-28T12:33:16.687Z,46.50
2019-01-28T12:35:44.522Z,46.50
2019-01-28T12:38:12.370Z,46.40
2019-01-28T12:40:40.220Z,46.50
2019-01-28T12:43:08.107Z,46.50
2019-01-28T12:45:36.023Z,46.50
2019-01-28T12:48:03.896Z,46.50
2019-01-28T12:50:32.048Z,46.60
2019-01-28T12:52:59.920Z,47.40
2019-01-28T12:55:27.868Z,46.60
2019-01-28T12:57:55.719Z,46.70
2019-01-28T13:00:27.246Z,46.70
2019-01-28T13:02:55.426Z,47.40
2019-01-28T13:05:23.284Z,48.30
2019-01-28T13:07:51.203Z,47.80
2019-01-28T13:10:20.020Z,47.70
2019-01-28T13:12:48.099Z,47.80
2019-01-28T13:15:17.586Z,47.40
2019-01-28T13:17:45.435Z,47.00
2019-01-28T13:20:13.306Z,46.60
2019-01-28T13:22:44.875Z,46.30
2019-01-28T13:25:12.708Z,46.30
2019-01-28T13:27:40.726Z,46.40
2019-01-28T13:30:10.642Z,46.40
2019-01-28T13:32:38.490Z,46.30
2019-01-28T13:35:06.332Z,46.20
2019-01-28T13:37:34.222Z,46.10
2019-01-28T13:40:02.075Z,46.10
2019-01-28T13:42:29.910Z,46.10
2019-01-28T13:44:57.759Z,46.00
2019-01-28T13:47:25.678Z,45.80
2019-01-28T13:49:53.530Z,46.00
2019-01-28T13:52:21.683Z,46.00
2019-01-28T13:54:49.543Z,45.80
2019-01-28T13:57:17.927Z,45.90
2019-01-28T13:59:45.780Z,45.80
2019-01-28T14:02:13.701Z,46.00
2019-01-28T14:04:41.548Z,46.00
2019-01-28T14:07:09.384Z,45.80
2019-01-28T14:09:37.607Z,45.90
2019-01-28T14:12:05.485Z,45.90
2019-01-28T14:14:33.323Z,46.20
2019-01-28T14:17:01.447Z,46.40
2019-01-28T14:19:29.296Z,46.40
2019-01-28T14:21:57.144Z,46.50
2019-01-28T14:24:24.992Z,46.60
2019-01-28T14:26:52.928Z,46.50
2019-01-28T14:29:21.047Z,46.70
2019-01-28T14:31:49.159Z,47.20
2019-01-28T14:34:17.056Z,47.20
2019-01-28T14:36:44.948Z,46.70
2019-01-28T14:39:13.619Z,46.60
2019-01-28T14:41:41.760Z,46.60
2019-01-28T14:44:09.617Z,46.40
2019-01-28T14:46:37.811Z,46.40
2019-01-28T14:49:05.656Z,46.20
2019-01-28T14:51:35.655Z,46.30
2019-01-28T14:54:03.391Z,46.20
2019-01-28T14:56:31.239Z,46.20
2019-01-28T14:58:59.084Z,46.00
2019-01-28T15:01:26.927Z,46.00
2019-01-28T15:03:54.784Z,46.10
2019-01-28T15:06:22.628Z,46.10
2019-01-28T15:08:50.504Z,46.10
2019-01-28T15:11:18.404Z,45.90
2019-01-28T15:13:46.318Z,46.60
2019-01-28T15:16:14.648Z,46.00
2019-01-28T15:18:42.505Z,45.80
2019-01-28T15:21:10.346Z,45.90
2019-01-28T15:23:38.207Z,45.80
2019-01-28T15:26:06.045Z,45.70
2019-01-28T15:28:33.888Z,45.80
2019-01-28T15:31:01.755Z,45.90
2019-01-28T15:33:29.651Z,46.10
2019-01-28T15:35:57.495Z,46.10
2019-01-28T15:38:25.340Z,46.00
2019-01-28T15:40:53.183Z,46.00
2019-01-28T15:43:21.187Z,46.10
2019-01-28T15:45:49.079Z,46.10
2019-01-28T15:48:16.996Z,46.10
2019-01-28T15:50:46.062Z,46.20
2019-01-28T15:53:13.916Z,46.10
2019-01-28T15:55:42.176Z,46.10
2019-01-28T15:58:11.722Z,46.00
2019-01-28T16:00:40.139Z,46.10
2019-01-28T16:03:09.022Z,46.10
2019-01-28T16:05:37.002Z,46.20
2019-01-28T16:08:05.242Z,46.00
2019-01-28T16:10:33.211Z,46.10
2019-01-28T16:13:01.402Z,46.10
2019-01-28T16:15:30.772Z,45.90
2019-01-28T16:17:58.615Z,45.90
2019-01-28T16:20:26.849Z,45.90
2019-01-28T16:22:54.771Z,45.80
2019-01-28T16:25:22.607Z,45.90
2019-01-28T16:27:50.465Z,45.60
2019-01-28T16:30:19.844Z,46.60
2019-01-28T16:32:47.770Z,47.00
2019-01-28T16:35:16.038Z,47.10
2019-01-28T16:37:44.179Z,46.90
2019-01-28T16:40:13.103Z,46.60
2019-01-28T16:42:40.966Z,46.70
2019-01-28T16:45:09.452Z,47.30
2019-01-28T16:47:37.627Z,47.40
2019-01-28T16:50:06.428Z,47.00
2019-01-28T16:52:34.267Z,47.00
2019-01-28T16:55:02.113Z,46.60
2019-01-28T16:57:30.400Z,46.70
2019-01-28T16:59:58.244Z,46.60
2019-01-28T17:02:26.084Z,47.20
2019-01-28T17:04:53.933Z,47.30
2019-01-28T17:07:21.766Z,47.30
2019-01-28T17:09:49.606Z,47.40
2019-01-28T17:12:17.508Z,47.60
2019-01-28T17:14:45.353Z,47.90
2019-01-28T17:17:13.253Z,46.90
2019-01-28T17:19:41.095Z,47.50
2019-01-28T17:22:08.992Z,46.90
2019-01-28T17:24:36.848Z,46.60
2019-01-28T17:27:04.919Z,46.60
2019-01-28T17:29:32.844Z,47.00
2019-01-28T17:32:01.028Z,46.60
2019-01-28T17:34:28.880Z,46.50
2019-01-28T17:36:56.802Z,46.30
2019-01-28T17:39:24.643Z,46.20
2019-01-28T17:41:52.875Z,46.20
2019-01-28T17:44:20.720Z,46.30
2019-01-28T17:46:48.563Z,46.20
2019-01-28T17:49:16.410Z,46.40
2019-01-28T17:51:44.258Z,46.40
2019-01-28T17:54:12.103Z,46.20
2019-01-28T17:56:39.949Z,46.30
2019-01-28T17:59:07.790Z,47.10
2019-01-28T18:01:35.707Z,47.10
2019-01-28T18:04:03.563Z,47.00
2019-01-28T18:06:31.407Z,47.30
2019-01-28T18:08:59.247Z,47.10
2019-01-28T18:11:27.087Z,47.00
2019-01-28T18:13:54.938Z,47.60
2019-01-28T18:16:22.778Z,47.30
2019-01-28T18:18:50.637Z,47.10
2019-01-28T18:21:18.471Z,47.40
2019-01-28T18:23:54.308Z,47.10
2019-01-28T18:26:22.415Z,46.70
2019-01-28T18:28:50.312Z,46.70
2019-01-28T18:31:18.147Z,47.50
2019-01-28T18:33:46.051Z,47.50
2019-01-28T18:36:14.192Z,46.80
2019-01-28T18:38:42.088Z,47.30
2019-01-28T18:41:09.927Z,47.40
2019-01-28T18:43:38.135Z,47.70
2019-01-28T18:46:05.978Z,47.40
2019-01-28T18:48:33.871Z,47.30
2019-01-28T18:51:01.766Z,47.90
2019-01-28T18:53:29.659Z,47.80
2019-01-28T18:55:57.496Z,48.10
2019-01-28T18:58:25.383Z,48.50
2019-01-28T19:00:53.629Z,48.60
2019-01-28T19:03:21.526Z,48.50
2019-01-28T19:06:05.531Z,48.70
2019-01-28T19:09:01.823Z,48.70
2019-01-28T19:11:45.502Z,48.70
2019-01-28T19:14:26.119Z,48.70
2019-01-28T19:17:10.935Z,48.60
2019-01-28T19:20:16.400Z,48.80
2019-01-28T19:22:44.400Z,48.70
2019-01-28T19:25:12.356Z,48.70
2019-01-28T19:27:40.285Z,48.80
2019-01-28T19:30:10.678Z,48.90
2019-01-28T19:32:38.519Z,48.70
2019-01-28T19:35:07.045Z,48.70
2019-01-28T19:37:35.236Z,48.80
2019-01-28T19:40:03.139Z,48.50
2019-01-28T19:42:30.987Z,48.90
2019-01-28T19:44:58.879Z,49.10
2019-01-28T19:47:26.740Z,48.50
2019-01-28T19:49:54.698Z,48.20
2019-01-28T19:52:22.554Z,47.90
2019-01-28T19:54:50.516Z,47.60
2019-01-28T19:57:18.361Z,47.70
2019-01-28T19:59:46.254Z,47.60
2019-01-28T20:02:14.216Z,47.30
2019-01-28T20:04:42.458Z,47.40
2019-01-28T20:07:10.304Z,47.60
2019-01-28T20:09:38.198Z,47.50
2019-01-28T20:12:06.053Z,47.70
2019-01-28T20:14:33.946Z,47.40
2019-01-28T20:17:01.795Z,47.30
2019-01-28T20:19:29.690Z,47.30
2019-01-28T20:21:57.548Z,47.30
2019-01-28T20:24:25.516Z,47.10
2019-01-28T20:26:53.388Z,47.10
2019-01-28T20:29:21.331Z,47.30
2019-01-28T20:31:49.171Z,47.30
2019-01-28T20:34:17.006Z,47.00
2019-01-28T20:36:44.859Z,47.10
2019-01-28T20:39:12.804Z,47.10
2019-01-28T20:41:40.652Z,47.00
2019-01-28T20:44:08.963Z,46.80
2019-01-28T20:46:37.141Z,47.20
2019-01-28T20:49:04.998Z,47.20
2019-01-28T20:51:33.132Z,47.10
2019-01-28T20:54:01.367Z,47.10
2019-01-28T20:56:29.329Z,47.40
2019-01-28T20:58:57.239Z,47.60
2019-01-28T21:01:25.558Z,47.70
2019-01-28T21:03:53.424Z,47.60
2019-01-28T21:06:21.690Z,47.70
2019-01-28T21:08:49.600Z,47.60
2019-01-28T21:11:17.529Z,47.50
2019-01-28T21:13:45.447Z,47.30
2019-01-28T21:16:13.511Z,47.40
2019-01-28T21:18:41.484Z,47.40
2019-01-28T21:21:09.380Z,47.40
2019-01-28T21:23:37.218Z,47.00
2019-01-28T21:26:05.107Z,47.40
2019-01-28T21:28:32.946Z,47.20
2019-01-28T21:31:00.835Z,47.20
2019-01-28T21:33:28.680Z,47.10
2019-01-28T21:36:15.699Z,47.80
2019-01-28T21:38:48.327Z,46.90
2019-01-28T21:41:16.236Z,47.80
2019-01-28T21:43:44.075Z,47.20
2019-01-28T21:46:12.382Z,47.70
2019-01-28T21:48:40.518Z,46.90
2019-01-28T21:51:08.392Z,47.00
2019-01-28T21:53:36.547Z,47.50
2019-01-28T21:56:04.466Z,48.20
2019-01-28T21:58:32.306Z,47.00
2019-01-28T22:01:00.188Z,46.80
2019-01-28T22:03:28.346Z,47.30
2019-01-28T22:06:00.857Z,47.30
2019-01-28T22:08:29.050Z,46.90
2019-01-28T22:10:56.972Z,47.20
2019-01-28T22:13:24.820Z,46.90
2019-01-28T22:15:53.019Z,47.00
2019-01-28T22:18:29.228Z,47.00
2019-01-28T22:20:57.592Z,47.00
2019-01-28T22:23:25.527Z,46.90
2019-01-28T22:25:53.392Z,46.70
2019-01-28T22:28:21.621Z,46.70
2019-01-28T22:30:49.491Z,47.00
2019-01-28T22:33:17.344Z,47.20
2019-01-28T22:35:45.258Z,47.30
2019-01-28T22:38:13.102Z,47.60
2019-01-28T22:40:41.341Z,47.90
2019-01-28T22:43:09.623Z,47.90
2019-01-28T22:45:37.808Z,48.20
2019-01-28T22:48:05.663Z,48.00
2019-01-28T22:50:33.550Z,48.00
2019-01-28T22:53:01.459Z,48.00
2019-01-28T22:55:29.302Z,48.10
2019-01-28T22:57:57.456Z,48.20
2019-01-28T23:00:49.104Z,48.30
2019-01-28T23:03:17.808Z,48.60
2019-01-28T23:05:45.674Z,48.60
2019-01-28T23:08:13.516Z,48.80
2019-01-28T23:10:41.666Z,48.60
2019-01-28T23:13:09.519Z,48.50
2019-01-28T23:15:37.687Z,48.20
2019-01-28T23:18:05.656Z,48.40
2019-01-28T23:20:33.858Z,48.80
2019-01-28T23:23:01.703Z,48.40
2019-01-28T23:25:29.893Z,49.10
2019-01-28T23:27:58.051Z,49.10
2019-01-28T23:30:25.897Z,48.50
2019-01-28T23:32:53.906Z,48.80
2019-01-28T23:35:21.760Z,48.60
2019-01-28T23:37:49.595Z,48.40
2019-01-28T23:40:17.883Z,48.20
2019-01-28T23:42:45.754Z,48.30
2019-01-28T23:45:13.619Z,48.40
2019-01-28T23:47:41.460Z,48.20
2019-01-28T23:50:09.310Z,48.40
2019-01-28T23:52:37.155Z,48.40
2019-01-28T23:55:05.026Z,48.40
2019-01-28T23:57:32.876Z,48.30
